createdAt,value
2023-01-19T00:00:06.402Z,7.60
2023-01-19T00:02:29.211Z,6.95
2023-01-19T00:04:51.803Z,7.75
2023-01-19T00:07:15.389Z,7.57
2023-01-19T00:09:38.501Z,6.43
2023-01-19T00:12:01.160Z,6.30
2023-01-19T00:14:23.816Z,5.63
2023-01-19T00:16:46.404Z,5.60
2023-01-19T00:19:09.135Z,6.25
2023-01-19T00:21:31.767Z,5.67
2023-01-19T00:23:54.403Z,6.88
2023-01-19T00:26:17.467Z,6.53
2023-01-19T00:28:40.100Z,6.80
2023-01-19T00:31:02.812Z,6.47
2023-01-19T00:33:25.438Z,6.40
2023-01-19T00:35:52.831Z,7.25
2023-01-19T00:38:15.612Z,7.40
2023-01-19T00:40:38.460Z,6.85
2023-01-19T00:43:01.825Z,9.18
2023-01-19T00:45:24.890Z,8.07
2023-01-19T00:47:50.276Z,7.13
2023-01-19T00:50:13.750Z,7.78
2023-01-19T00:52:36.367Z,8.60
2023-01-19T00:54:58.973Z,9.38
2023-01-19T00:57:21.590Z,8.33
2023-01-19T00:59:44.216Z,8.75
2023-01-19T01:02:07.232Z,8.52
2023-01-19T01:04:30.264Z,9.75
2023-01-19T01:06:52.859Z,7.07
2023-01-19T01:09:15.757Z,8.53
2023-01-19T01:11:40.010Z,8.48
2023-01-19T01:14:02.494Z,8.13
2023-01-19T01:16:26.199Z,7.85
2023-01-19T01:18:48.839Z,7.32
2023-01-19T01:21:13.024Z,7.30
2023-01-19T01:23:35.610Z,8.00
2023-01-19T01:25:58.232Z,5.93
2023-01-19T01:28:21.117Z,6.50
2023-01-19T01:30:44.133Z,6.13
2023-01-19T01:33:09.494Z,6.63
2023-01-19T01:35:33.996Z,6.13
2023-01-19T01:37:59.090Z,5.53
2023-01-19T01:40:21.757Z,4.40
2023-01-19T01:42:45.511Z,4.10
2023-01-19T01:45:24.682Z,4.70
2023-01-19T01:47:49.991Z,5.07
2023-01-19T01:50:21.202Z,5.70
2023-01-19T01:53:07.116Z,5.30
2023-01-19T01:55:32.976Z,4.55
2023-01-19T01:58:01.302Z,4.50
2023-01-19T02:00:27.341Z,4.32
2023-01-19T02:02:51.785Z,3.10
2023-01-19T02:05:34.026Z,2.70
2023-01-19T02:08:34.393Z,2.90
2023-01-19T02:11:16.644Z,2.20
2023-01-19T02:13:43.993Z,1.90
2023-01-19T02:16:08.677Z,1.15
2023-01-19T02:18:32.575Z,1.42
2023-01-19T02:21:18.947Z,1.40
2023-01-19T02:23:58.969Z,0.97
2023-01-19T02:26:25.066Z,0.90
2023-01-19T02:28:55.045Z,0.82
2023-01-19T02:31:18.706Z,0.80
2023-01-19T02:33:41.795Z,0.90
2023-01-19T02:36:08.181Z,0.60
2023-01-19T02:38:32.198Z,0.73
2023-01-19T02:41:01.082Z,0.60
2023-01-19T02:43:25.098Z,0.80
2023-01-19T02:45:48.334Z,0.80
2023-01-19T02:48:11.414Z,0.70
2023-01-19T02:50:49.875Z,0.70
2023-01-19T02:53:24.382Z,1.00
2023-01-19T02:55:56.774Z,0.70
2023-01-19T02:58:53.715Z,0.77
2023-01-19T03:01:30.373Z,0.63
2023-01-19T03:04:04.602Z,1.10
2023-01-19T03:06:51.717Z,0.77
2023-01-19T03:09:38.529Z,1.00
2023-01-19T03:12:31.843Z,0.90
2023-01-19T03:15:01.757Z,0.90
2023-01-19T03:17:25.713Z,0.80
2023-01-19T03:19:50.564Z,0.70
2023-01-19T03:22:23.565Z,0.60
2023-01-19T03:24:48.175Z,0.70
2023-01-19T03:27:18.016Z,0.50
2023-01-19T03:29:45.705Z,0.50
2023-01-19T03:32:13.942Z,0.65
2023-01-19T03:34:39.268Z,0.55
2023-01-19T03:37:05.164Z,0.70
2023-01-19T03:39:28.960Z,0.60
2023-01-19T03:41:58.670Z,0.60
2023-01-19T03:44:23.584Z,0.60
2023-01-19T03:46:48.056Z,0.45
2023-01-19T03:49:11.521Z,0.57
2023-01-19T03:51:40.393Z,0.50
2023-01-19T03:54:05.239Z,0.50
2023-01-19T03:56:27.884Z,0.60
2023-01-19T03:58:51.386Z,0.60
2023-01-19T04:01:15.211Z,0.50
2023-01-19T04:03:38.016Z,0.43
2023-01-19T04:06:01.766Z,0.63
2023-01-19T04:08:24.415Z,0.80
2023-01-19T04:10:47.068Z,1.25
2023-01-19T04:13:09.814Z,1.80
2023-01-19T04:15:32.562Z,2.30
2023-01-19T04:17:58.330Z,2.30
2023-01-19T04:20:21.807Z,2.33
2023-01-19T04:22:44.672Z,2.80
2023-01-19T04:25:08.135Z,2.92
2023-01-19T04:27:30.759Z,2.40
2023-01-19T04:29:53.470Z,2.72
2023-01-19T04:32:16.417Z,2.83
2023-01-19T04:34:38.933Z,3.17
2023-01-19T04:37:01.620Z,2.60
2023-01-19T04:39:24.275Z,2.40
2023-01-19T04:41:47.112Z,2.30
2023-01-19T04:44:09.767Z,2.45
2023-01-19T04:46:32.479Z,2.20
2023-01-19T04:48:55.001Z,1.90
2023-01-19T04:51:17.704Z,1.60
2023-01-19T04:53:40.461Z,1.40
2023-01-19T04:56:03.185Z,1.27
2023-01-19T04:58:25.871Z,1.17
2023-01-19T05:00:48.691Z,1.50
2023-01-19T05:03:11.441Z,1.80
2023-01-19T05:05:34.275Z,1.58
2023-01-19T05:07:57.614Z,1.90
2023-01-19T05:10:20.550Z,2.42
2023-01-19T05:12:43.170Z,1.95
2023-01-19T05:15:07.997Z,2.00
2023-01-19T05:17:31.004Z,2.08
2023-01-19T05:19:53.572Z,2.15
2023-01-19T05:22:16.685Z,2.30
2023-01-19T05:24:39.375Z,1.98
2023-01-19T05:27:01.984Z,2.00
2023-01-19T05:29:24.725Z,2.33
2023-01-19T05:31:47.710Z,1.90
2023-01-19T05:34:12.192Z,1.90
2023-01-19T05:36:34.758Z,1.60
2023-01-19T05:38:57.736Z,1.40
2023-01-19T05:41:20.717Z,1.13
2023-01-19T05:43:43.483Z,1.42
2023-01-19T05:46:06.328Z,1.40
2023-01-19T05:48:28.937Z,1.58
2023-01-19T05:50:51.762Z,1.90
2023-01-19T05:53:14.449Z,1.90
2023-01-19T05:55:36.979Z,2.17
2023-01-19T05:57:59.632Z,2.15
2023-01-19T06:00:22.415Z,2.47
2023-01-19T06:02:46.698Z,2.77
2023-01-19T06:05:09.719Z,2.80
2023-01-19T06:07:32.389Z,2.95
2023-01-19T06:09:55.201Z,3.50
2023-01-19T06:12:17.920Z,3.22
2023-01-19T06:14:41.003Z,2.90
2023-01-19T06:17:06.172Z,3.63
2023-01-19T06:19:28.797Z,3.47
2023-01-19T06:21:52.569Z,3.33
2023-01-19T06:24:16.271Z,3.15
2023-01-19T06:26:38.897Z,3.30
2023-01-19T06:29:01.664Z,3.35
2023-01-19T06:31:24.665Z,3.65
2023-01-19T06:33:47.813Z,3.28
2023-01-19T06:36:10.583Z,3.45
2023-01-19T06:38:33.375Z,3.90
2023-01-19T06:41:04.870Z,3.80
2023-01-19T06:43:29.368Z,4.43
2023-01-19T06:45:52.757Z,3.83
2023-01-19T06:48:15.958Z,4.53
2023-01-19T06:50:38.629Z,4.73
2023-01-19T06:53:01.894Z,5.05
2023-01-19T06:55:25.369Z,5.63
2023-01-19T06:57:58.997Z,4.70
2023-01-19T07:00:22.133Z,5.93
2023-01-19T07:02:44.926Z,5.40
2023-01-19T07:05:09.367Z,5.95
2023-01-19T07:07:32.579Z,5.70
2023-01-19T07:09:55.400Z,5.45
2023-01-19T07:12:18.375Z,5.43
2023-01-19T07:14:41.085Z,6.47
2023-01-19T07:17:03.732Z,5.82
2023-01-19T07:19:26.550Z,6.50
2023-01-19T07:21:49.703Z,5.85
2023-01-19T07:24:12.559Z,6.25
2023-01-19T07:26:37.920Z,6.40
2023-01-19T07:29:01.427Z,6.65
2023-01-19T07:31:24.811Z,6.63
2023-01-19T07:33:47.745Z,6.35
2023-01-19T07:36:10.772Z,6.50
2023-01-19T07:38:33.370Z,6.57
2023-01-19T07:41:03.390Z,6.82
2023-01-19T07:43:26.115Z,7.55
2023-01-19T07:45:48.873Z,7.85
2023-01-19T07:48:11.874Z,7.15
2023-01-19T07:50:34.763Z,6.77
2023-01-19T07:52:58.053Z,7.60
2023-01-19T07:55:21.624Z,7.68
2023-01-19T07:57:44.417Z,9.13
2023-01-19T08:00:08.939Z,8.65
2023-01-19T08:02:38.051Z,8.93
2023-01-19T08:05:03.191Z,9.05
2023-01-19T08:07:26.845Z,8.80
2023-01-19T08:09:49.685Z,9.45
2023-01-19T08:12:12.514Z,8.35
2023-01-19T08:14:37.362Z,9.57
2023-01-19T08:17:02.440Z,9.70
2023-01-19T08:19:26.635Z,9.93
2023-01-19T08:21:49.667Z,10.02
2023-01-19T08:24:19.730Z,9.85
2023-01-19T08:26:42.398Z,10.00
2023-01-19T08:29:06.040Z,9.93
2023-01-19T08:31:29.195Z,10.88
2023-01-19T08:33:52.372Z,9.70
2023-01-19T08:36:15.338Z,11.00
2023-01-19T08:38:40.917Z,9.97
2023-01-19T08:41:03.823Z,10.57
2023-01-19T08:43:26.598Z,10.60
2023-01-19T08:45:53.415Z,10.13
2023-01-19T08:48:18.589Z,11.43
2023-01-19T08:50:41.340Z,9.80
2023-01-19T08:53:06.991Z,9.95
2023-01-19T08:55:30.666Z,10.55
2023-01-19T08:57:54.676Z,11.63
2023-01-19T09:00:18.079Z,10.98
2023-01-19T09:02:40.810Z,10.73
2023-01-19T09:05:04.738Z,11.98
2023-01-19T09:07:30.569Z,11.88
2023-01-19T09:09:55.876Z,10.32
2023-01-19T09:12:21.998Z,10.80
2023-01-19T09:14:45.856Z,11.27
2023-01-19T09:17:08.504Z,10.13
2023-01-19T09:19:34.264Z,10.80
2023-01-19T09:22:02.270Z,10.93
2023-01-19T09:24:33.933Z,10.30
2023-01-19T09:26:56.982Z,10.27
2023-01-19T09:29:19.843Z,10.50
2023-01-19T09:31:43.879Z,10.65
2023-01-19T09:34:06.887Z,10.23
2023-01-19T09:36:30.281Z,10.70
2023-01-19T09:38:52.927Z,11.40
2023-01-19T09:41:26.278Z,10.43
2023-01-19T09:43:58.054Z,10.27
2023-01-19T09:46:38.862Z,10.73
2023-01-19T09:49:06.829Z,11.93
2023-01-19T09:51:35.117Z,11.30
2023-01-19T09:54:00.556Z,11.90
2023-01-19T09:56:24.425Z,11.35
2023-01-19T09:58:49.435Z,13.65
2023-01-19T10:01:15.139Z,11.68
2023-01-19T10:03:41.967Z,11.87
2023-01-19T10:06:07.372Z,12.45
2023-01-19T10:08:55.939Z,11.80
2023-01-19T10:11:53.617Z,12.35
2023-01-19T10:14:34.295Z,13.35
2023-01-19T10:17:12.655Z,12.07
2023-01-19T10:19:46.628Z,12.15
2023-01-19T10:22:28.815Z,12.68
2023-01-19T10:24:59.069Z,12.00
2023-01-19T10:27:28.597Z,12.50
2023-01-19T10:29:51.552Z,12.10
2023-01-19T10:32:22.315Z,12.10
2023-01-19T10:34:47.716Z,13.43
2023-01-19T10:37:29.742Z,13.07
2023-01-19T10:39:55.646Z,13.27
2023-01-19T10:42:18.591Z,13.47
2023-01-19T10:44:41.904Z,12.63
2023-01-19T10:47:11.871Z,12.50
2023-01-19T10:49:44.724Z,12.18
2023-01-19T10:52:19.961Z,13.20
2023-01-19T10:54:43.820Z,12.23
2023-01-19T10:57:10.166Z,12.65
2023-01-19T10:59:52.463Z,12.50
2023-01-19T11:02:17.794Z,13.07
2023-01-19T11:04:42.184Z,12.98
2023-01-19T11:07:26.702Z,12.40
2023-01-19T11:09:50.633Z,12.68
2023-01-19T11:12:22.966Z,12.45
2023-01-19T11:14:47.756Z,13.30
2023-01-19T11:17:20.459Z,12.93
2023-01-19T11:19:43.370Z,12.33
2023-01-19T11:22:21.881Z,11.48
2023-01-19T11:24:44.815Z,13.27
2023-01-19T11:27:07.765Z,12.68
2023-01-19T11:29:31.658Z,12.02
2023-01-19T11:31:57.662Z,12.00
2023-01-19T11:34:33.460Z,11.77
2023-01-19T11:37:27.266Z,12.88
2023-01-19T11:39:56.329Z,13.07
2023-01-19T11:42:20.243Z,12.20
2023-01-19T11:44:59.226Z,12.50
2023-01-19T11:47:32.433Z,11.75
2023-01-19T11:50:05.159Z,12.32
2023-01-19T11:52:36.446Z,11.80
2023-01-19T11:55:08.092Z,12.10
2023-01-19T11:57:31.101Z,11.93
2023-01-19T11:59:54.699Z,12.88
2023-01-19T12:02:28.197Z,11.93
2023-01-19T12:04:54.543Z,11.05
2023-01-19T12:07:26.017Z,11.77
2023-01-19T12:09:56.604Z,11.07
2023-01-19T12:12:31.570Z,10.48
2023-01-19T12:15:08.252Z,11.30
2023-01-19T12:17:39.126Z,10.98
2023-01-19T12:20:20.765Z,10.98
2023-01-19T12:22:51.324Z,11.67
2023-01-19T12:25:43.229Z,11.25
2023-01-19T12:28:13.158Z,10.30
2023-01-19T12:30:37.163Z,11.10
2023-01-19T12:33:29.163Z,10.70
2023-01-19T12:36:04.085Z,10.20
2023-01-19T12:38:42.187Z,10.40
2023-01-19T12:41:38.206Z,10.38
2023-01-19T12:44:16.572Z,9.98
2023-01-19T12:46:46.450Z,11.10
2023-01-19T12:49:12.190Z,11.37
2023-01-19T12:51:35.289Z,11.35
2023-01-19T12:54:01.373Z,11.80
2023-01-19T12:56:31.331Z,11.55
2023-01-19T12:58:54.133Z,11.40
2023-01-19T13:01:21.580Z,10.87
2023-01-19T13:03:46.381Z,10.30
2023-01-19T13:06:09.156Z,10.43
2023-01-19T13:08:58.112Z,10.05
2023-01-19T13:11:23.737Z,10.70
2023-01-19T13:13:50.510Z,10.60
2023-01-19T13:16:19.368Z,9.65
2023-01-19T13:18:43.952Z,9.80
2023-01-19T13:21:08.829Z,9.75
2023-01-19T13:23:52.486Z,10.05
2023-01-19T13:26:17.687Z,9.80
2023-01-19T13:28:55.581Z,8.98
2023-01-19T13:31:19.422Z,9.18
2023-01-19T13:33:52.210Z,10.20
2023-01-19T13:36:33.603Z,10.07
2023-01-19T13:38:58.926Z,9.77
2023-01-19T13:41:27.519Z,8.80
2023-01-19T13:44:16.370Z,8.57
2023-01-19T13:46:42.252Z,9.30
2023-01-19T13:49:30.593Z,8.27
2023-01-19T13:52:23.782Z,8.70
2023-01-19T13:54:56.324Z,7.90
2023-01-19T13:57:29.309Z,8.63
2023-01-19T14:00:05.059Z,9.00
2023-01-19T14:02:34.568Z,8.10
2023-01-19T14:04:57.428Z,7.80
2023-01-19T14:07:26.584Z,7.40
2023-01-19T14:10:05.581Z,8.70
2023-01-19T14:12:28.987Z,7.30
2023-01-19T14:15:23.523Z,8.18
2023-01-19T14:18:12.095Z,8.00
2023-01-19T14:20:37.164Z,7.50
2023-01-19T14:23:00.655Z,8.27
2023-01-19T14:25:35.213Z,7.00
2023-01-19T14:28:36.130Z,7.63
2023-01-19T14:31:17.691Z,7.22
2023-01-19T14:33:46.981Z,6.57
2023-01-19T14:36:39.201Z,7.45
2023-01-19T14:39:03.330Z,7.72
2023-01-19T14:41:39.962Z,8.00
2023-01-19T14:44:09.123Z,7.55
2023-01-19T14:46:31.957Z,7.67
2023-01-19T14:49:01.838Z,8.02
2023-01-19T14:51:26.659Z,8.32
2023-01-19T14:53:58.747Z,7.47
2023-01-19T14:56:30.553Z,8.32
2023-01-19T14:58:53.381Z,8.07
2023-01-19T15:01:16.222Z,8.23
2023-01-19T15:03:44.715Z,8.20
2023-01-19T15:06:13.742Z,7.75
2023-01-19T15:08:38.937Z,8.10
2023-01-19T15:11:08.924Z,8.13
2023-01-19T15:13:31.622Z,8.60
2023-01-19T15:15:54.179Z,8.68
2023-01-19T15:18:23.634Z,8.63
2023-01-19T15:20:46.742Z,9.18
2023-01-19T15:23:12.987Z,9.30
2023-01-19T15:25:35.623Z,9.25
2023-01-19T15:27:59.461Z,10.68
2023-01-19T15:30:25.244Z,9.35
2023-01-19T15:32:47.977Z,10.05
2023-01-19T15:35:18.921Z,8.60
2023-01-19T15:37:41.764Z,9.65
2023-01-19T15:40:05.101Z,10.80
2023-01-19T15:42:27.880Z,10.43
2023-01-19T15:44:50.410Z,9.88
2023-01-19T15:47:13.043Z,10.80
2023-01-19T15:49:35.883Z,10.75
2023-01-19T15:51:58.465Z,10.48
2023-01-19T15:54:21.049Z,11.52
2023-01-19T15:56:43.770Z,10.63
2023-01-19T15:59:06.760Z,10.70
2023-01-19T16:01:33.822Z,10.68
2023-01-19T16:04:02.598Z,11.38
2023-01-19T16:06:25.304Z,12.13
2023-01-19T16:08:48.011Z,12.45
2023-01-19T16:11:15.697Z,11.30
2023-01-19T16:13:39.225Z,11.63
2023-01-19T16:16:06.357Z,12.38
2023-01-19T16:18:29.045Z,12.07
2023-01-19T16:20:51.848Z,11.65
2023-01-19T16:23:15.479Z,12.40
2023-01-19T16:25:38.343Z,11.90
2023-01-19T16:28:01.152Z,12.27
2023-01-19T16:30:23.854Z,11.60
2023-01-19T16:32:46.981Z,11.85
2023-01-19T16:35:10.222Z,11.87
2023-01-19T16:37:33.088Z,11.50
2023-01-19T16:39:56.551Z,11.65
2023-01-19T16:42:19.461Z,11.85
2023-01-19T16:44:42.640Z,10.95
2023-01-19T16:47:05.245Z,11.70
2023-01-19T16:49:28.588Z,11.13
2023-01-19T16:51:53.409Z,12.13
2023-01-19T16:54:26.069Z,11.38
2023-01-19T16:56:49.468Z,10.63
2023-01-19T16:59:14.047Z,10.87
2023-01-19T17:01:38.070Z,10.90
2023-01-19T17:04:00.972Z,10.90
2023-01-19T17:06:24.245Z,11.50
2023-01-19T17:08:47.358Z,10.90
2023-01-19T17:11:21.533Z,10.47
2023-01-19T17:13:44.283Z,10.93
2023-01-19T17:16:07.384Z,10.70
2023-01-19T17:18:33.445Z,10.70
2023-01-19T17:21:02.423Z,11.73
2023-01-19T17:23:25.051Z,12.37
2023-01-19T17:25:55.282Z,11.95
2023-01-19T17:28:18.225Z,11.68
2023-01-19T17:30:41.159Z,11.60
2023-01-19T17:33:03.924Z,11.35
2023-01-19T17:35:26.862Z,12.13
2023-01-19T17:37:54.215Z,12.40
2023-01-19T17:40:17.067Z,11.30
2023-01-19T17:42:42.861Z,10.98
2023-01-19T17:45:06.057Z,11.23
2023-01-19T17:47:28.981Z,11.97
2023-01-19T17:49:51.813Z,11.75
2023-01-19T17:52:17.904Z,10.45
2023-01-19T17:54:43.842Z,11.40
2023-01-19T17:57:06.799Z,10.00
2023-01-19T17:59:29.748Z,10.30
2023-01-19T18:01:53.433Z,10.27
2023-01-19T18:04:16.343Z,10.52
2023-01-19T18:06:39.224Z,10.80
2023-01-19T18:09:02.115Z,10.52
2023-01-19T18:11:26.369Z,11.80
2023-01-19T18:13:51.702Z,10.68
2023-01-19T18:16:23.895Z,11.30
2023-01-19T18:18:50.240Z,10.48
2023-01-19T18:21:14.747Z,10.85
2023-01-19T18:23:37.879Z,9.80
2023-01-19T18:26:02.128Z,10.27
2023-01-19T18:28:25.241Z,9.68
2023-01-19T18:30:48.251Z,9.82
2023-01-19T18:33:11.227Z,9.93
2023-01-19T18:35:34.202Z,10.03
2023-01-19T18:37:58.601Z,8.70
2023-01-19T18:40:21.334Z,9.43
2023-01-19T18:42:45.685Z,9.98
2023-01-19T18:45:09.370Z,9.48
2023-01-19T18:47:33.110Z,10.53
2023-01-19T18:50:04.225Z,10.85
2023-01-19T18:52:27.419Z,10.43
2023-01-19T18:54:49.993Z,10.63
2023-01-19T18:57:12.888Z,10.45
2023-01-19T18:59:36.823Z,11.10
2023-01-19T19:02:01.536Z,10.18
2023-01-19T19:04:24.395Z,10.52
2023-01-19T19:06:47.446Z,10.35
2023-01-19T19:09:11.117Z,9.40
2023-01-19T19:11:34.503Z,9.10
2023-01-19T19:14:02.509Z,9.93
2023-01-19T19:16:25.516Z,9.50
2023-01-19T19:18:52.167Z,10.25
2023-01-19T19:21:16.288Z,9.65
2023-01-19T19:23:39.029Z,9.30
2023-01-19T19:26:07.576Z,9.45
2023-01-19T19:28:31.236Z,9.75
2023-01-19T19:31:05.801Z,9.48
2023-01-19T19:33:29.290Z,10.15
2023-01-19T19:35:56.844Z,9.67
2023-01-19T19:38:20.832Z,9.80
2023-01-19T19:40:43.717Z,10.30
2023-01-19T19:43:06.761Z,9.95
2023-01-19T19:45:29.703Z,10.10
2023-01-19T19:47:52.902Z,10.40
2023-01-19T19:50:16.149Z,8.75
2023-01-19T19:52:42.971Z,9.73
2023-01-19T19:55:07.900Z,9.85
2023-01-19T19:57:30.772Z,9.38
2023-01-19T19:59:53.688Z,7.87
2023-01-19T20:02:16.678Z,8.02
2023-01-19T20:04:39.822Z,8.75
2023-01-19T20:07:02.681Z,9.05
2023-01-19T20:09:25.985Z,9.73
2023-01-19T20:11:49.230Z,9.40
2023-01-19T20:14:13.091Z,9.20
2023-01-19T20:16:36.454Z,8.68
2023-01-19T20:18:59.297Z,9.25
2023-01-19T20:21:26.186Z,8.20
2023-01-19T20:23:50.723Z,9.00
2023-01-19T20:26:15.913Z,9.25
2023-01-19T20:28:39.241Z,9.25
2023-01-19T20:31:32.710Z,9.18
2023-01-19T20:33:58.951Z,9.30
2023-01-19T20:36:24.365Z,8.43
2023-01-19T20:38:47.754Z,8.65
2023-01-19T20:41:12.502Z,7.75
2023-01-19T20:43:35.877Z,8.30
2023-01-19T20:45:58.917Z,7.82
2023-01-19T20:48:21.933Z,8.17
2023-01-19T20:50:44.720Z,8.07
2023-01-19T20:53:07.544Z,7.80
2023-01-19T20:55:30.402Z,7.63
2023-01-19T20:57:53.295Z,8.85
2023-01-19T21:00:16.259Z,7.83
2023-01-19T21:02:39.076Z,8.32
2023-01-19T21:05:01.804Z,9.00
2023-01-19T21:07:24.904Z,8.32
2023-01-19T21:09:48.036Z,8.50
2023-01-19T21:12:11.246Z,8.67
2023-01-19T21:14:33.886Z,8.40
2023-01-19T21:16:59.657Z,8.63
2023-01-19T21:19:23.532Z,8.52
2023-01-19T21:21:46.326Z,8.25
2023-01-19T21:24:10.308Z,8.27
2023-01-19T21:26:33.764Z,7.75
2023-01-19T21:29:02.004Z,8.38
2023-01-19T21:31:27.906Z,7.80
2023-01-19T21:33:53.568Z,7.15
2023-01-19T21:36:16.186Z,7.53
2023-01-19T21:38:39.282Z,7.57
2023-01-19T21:41:09.809Z,7.70
2023-01-19T21:43:32.619Z,7.30
2023-01-19T21:45:55.301Z,7.53
2023-01-19T21:48:17.942Z,7.67
2023-01-19T21:50:40.769Z,6.60
2023-01-19T21:53:03.661Z,7.30
2023-01-19T21:55:26.475Z,7.60
2023-01-19T21:57:52.202Z,7.05
2023-01-19T22:00:15.106Z,7.30
2023-01-19T22:02:39.125Z,6.80
2023-01-19T22:05:02.481Z,6.70
2023-01-19T22:07:25.258Z,6.50
2023-01-19T22:09:48.311Z,7.07
2023-01-19T22:12:11.101Z,7.00
2023-01-19T22:14:33.715Z,6.93
2023-01-19T22:16:59.304Z,7.80
2023-01-19T22:19:25.784Z,6.75
2023-01-19T22:21:51.727Z,6.68
2023-01-19T22:24:14.348Z,6.73
2023-01-19T22:26:37.723Z,7.18
2023-01-19T22:29:01.868Z,7.03
2023-01-19T22:31:25.968Z,6.78
2023-01-19T22:33:51.707Z,6.60
2023-01-19T22:36:20.716Z,7.30
2023-01-19T22:38:44.781Z,7.60
2023-01-19T22:41:28.750Z,7.30
2023-01-19T22:43:54.294Z,7.40
2023-01-19T22:46:21.145Z,8.23
2023-01-19T22:48:44.008Z,8.43
2023-01-19T22:51:06.681Z,8.27
2023-01-19T22:53:31.675Z,8.63
2023-01-19T22:55:54.271Z,8.07
2023-01-19T22:58:17.057Z,8.18
2023-01-19T23:00:39.681Z,9.27
2023-01-19T23:03:02.322Z,8.70
2023-01-19T23:05:24.920Z,9.30
2023-01-19T23:07:47.455Z,7.90
2023-01-19T23:10:10.756Z,8.32
2023-01-19T23:12:33.529Z,7.97
2023-01-19T23:14:56.152Z,8.38
2023-01-19T23:17:18.778Z,8.27
2023-01-19T23:19:41.404Z,9.05
2023-01-19T23:22:04.201Z,8.05
2023-01-19T23:24:26.749Z,8.50
2023-01-19T23:26:52.243Z,8.43
2023-01-19T23:29:15.665Z,8.82
2023-01-19T23:31:42.414Z,8.25
2023-01-19T23:34:08.049Z,8.13
2023-01-19T23:36:33.230Z,7.33
2023-01-19T23:38:58.185Z,7.55
2023-01-19T23:41:22.547Z,8.30
2023-01-19T23:43:45.547Z,7.47
2023-01-19T23:46:09.901Z,8.43
2023-01-19T23:48:34.169Z,8.70
2023-01-19T23:50:56.919Z,7.93
2023-01-19T23:53:20.609Z,7.60
2023-01-19T23:55:43.174Z,8.02
2023-01-19T23:58:05.844Z,7.72
